Au Sable Forks, New York
Current Conditions -  °F | °C
As of 7:53 AM on Wednesday 22 Oct 2014 (Local Time) from KPBG Reporting Station
Overcast Overcast  
Wind Chill: 37°   Ceiling: 1100
Heat Index: 44°   Visibility: 10mi
Dew Point: 41°   Wind: 16mph
Humidity: 89%   Direction: 350°N
Pressure: 30.19"   Gusts: NA
Location:  44.44°N, 73.67°W
Report Text: KPBG 221153Z AUTO 35014KT 10SM BKN011 OVC027 07/05 A3019 RMK AO2 SLP223 70013 T00670050 10067 20061 53017
Loading
Personal Weather Stations






























Interactive Weather Map
Tropical Storm Tracking
New forecast layout! Learn more

10-Day Weather Forecast

Advertisements
Track Severe Weather on mobile